sensor_id;sensor_type;location;lat;lon;timestamp;P1;durP1;ratioP1;P2;durP2;ratioP2
12962;SDS011;6546;49.882;8.666;2022-12-16T00:00:10;24.33;;;13.33;;
12962;SDS011;6546;49.882;8.666;2022-12-16T00:02:37;22.47;;;11.83;;
12962;SDS011;6546;49.882;8.666;2022-12-16T00:05:04;21.47;;;13.37;;
12962;SDS011;6546;49.882;8.666;2022-12-16T00:07:32;23.73;;;13.67;;
12962;SDS011;6546;49.882;8.666;2022-12-16T00:10:00;24.13;;;14.30;;
12962;SDS011;6546;49.882;8.666;2022-12-16T00:12:27;23.37;;;13.07;;
12962;SDS011;6546;49.882;8.666;2022-12-16T00:14:53;20.70;;;13.13;;
12962;SDS011;6546;49.882;8.666;2022-12-16T00:17:20;25.20;;;13.10;;
12962;SDS011;6546;49.882;8.666;2022-12-16T00:19:47;22.67;;;13.40;;
12962;SDS011;6546;49.882;8.666;2022-12-16T00:22:13;24.87;;;13.57;;
12962;SDS011;6546;49.882;8.666;2022-12-16T00:24:40;25.57;;;13.37;;
12962;SDS011;6546;49.882;8.666;2022-12-16T00:27:08;20.87;;;12.20;;
12962;SDS011;6546;49.882;8.666;2022-12-16T00:29:34;22.30;;;12.13;;
12962;SDS011;6546;49.882;8.666;2022-12-16T00:32:01;23.57;;;13.47;;
12962;SDS011;6546;49.882;8.666;2022-12-16T00:34:28;20.70;;;12.77;;
12962;SDS011;6546;49.882;8.666;2022-12-16T00:36:54;23.00;;;12.80;;
12962;SDS011;6546;49.882;8.666;2022-12-16T00:39:21;22.50;;;13.33;;
12962;SDS011;6546;49.882;8.666;2022-12-16T00:41:48;22.30;;;13.67;;
12962;SDS011;6546;49.882;8.666;2022-12-16T00:44:16;20.93;;;12.77;;
12962;SDS011;6546;49.882;8.666;2022-12-16T00:46:42;20.07;;;12.53;;
12962;SDS011;6546;49.882;8.666;2022-12-16T00:49:09;21.10;;;13.10;;
12962;SDS011;6546;49.882;8.666;2022-12-16T00:51:36;18.37;;;11.17;;
12962;SDS011;6546;49.882;8.666;2022-12-16T00:54:02;23.17;;;12.53;;
12962;SDS011;6546;49.882;8.666;2022-12-16T00:56:29;20.13;;;12.13;;
12962;SDS011;6546;49.882;8.666;2022-12-16T00:58:55;18.20;;;11.47;;
12962;SDS011;6546;49.882;8.666;2022-12-16T01:01:23;21.97;;;12.13;;
12962;SDS011;6546;49.882;8.666;2022-12-16T01:03:50;23.00;;;12.90;;
12962;SDS011;6546;49.882;8.666;2022-12-16T01:06:17;21.90;;;12.73;;
12962;SDS011;6546;49.882;8.666;2022-12-16T01:08:43;24.37;;;13.40;;
12962;SDS011;6546;49.882;8.666;2022-12-16T01:11:12;19.03;;;11.87;;
12962;SDS011;6546;49.882;8.666;2022-12-16T01:13:41;24.03;;;12.83;;
12962;SDS011;6546;49.882;8.666;2022-12-16T01:16:07;21.73;;;11.47;;
12962;SDS011;6546;49.882;8.666;2022-12-16T01:18:35;24.73;;;13.03;;
12962;SDS011;6546;49.882;8.666;2022-12-16T01:21:02;19.43;;;11.77;;
12962;SDS011;6546;49.882;8.666;2022-12-16T01:23:30;20.80;;;12.33;;
12962;SDS011;6546;49.882;8.666;2022-12-16T01:25:57;21.47;;;12.17;;
12962;SDS011;6546;49.882;8.666;2022-12-16T01:28:25;25.37;;;13.23;;
12962;SDS011;6546;49.882;8.666;2022-12-16T01:30:53;24.67;;;12.40;;
12962;SDS011;6546;49.882;8.666;2022-12-16T01:33:21;20.10;;;11.70;;
12962;SDS011;6546;49.882;8.666;2022-12-16T01:35:49;21.83;;;12.17;;
12962;SDS011;6546;49.882;8.666;2022-12-16T01:38:15;22.90;;;12.10;;
12962;SDS011;6546;49.882;8.666;2022-12-16T01:40:42;20.10;;;11.87;;
12962;SDS011;6546;49.882;8.666;2022-12-16T01:43:09;22.07;;;12.77;;
12962;SDS011;6546;49.882;8.666;2022-12-16T01:45:37;21.00;;;11.57;;
12962;SDS011;6546;49.882;8.666;2022-12-16T01:48:18;21.47;;;12.40;;
12962;SDS011;6546;49.882;8.666;2022-12-16T01:50:55;21.80;;;12.00;;
12962;SDS011;6546;49.882;8.666;2022-12-16T01:53:27;21.83;;;12.67;;
12962;SDS011;6546;49.882;8.666;2022-12-16T01:55:54;20.30;;;11.87;;
12962;SDS011;6546;49.882;8.666;2022-12-16T01:58:23;22.87;;;11.43;;
12962;SDS011;6546;49.882;8.666;2022-12-16T02:00:54;22.17;;;12.07;;
12962;SDS011;6546;49.882;8.666;2022-12-16T02:03:21;19.97;;;11.33;;
12962;SDS011;6546;49.882;8.666;2022-12-16T02:05:48;22.57;;;12.83;;
12962;SDS011;6546;49.882;8.666;2022-12-16T02:08:17;22.20;;;11.67;;
12962;SDS011;6546;49.882;8.666;2022-12-16T02:10:46;20.50;;;12.40;;
12962;SDS011;6546;49.882;8.666;2022-12-16T02:13:29;21.47;;;12.30;;
12962;SDS011;6546;49.882;8.666;2022-12-16T02:16:04;19.77;;;11.50;;
12962;SDS011;6546;49.882;8.666;2022-12-16T02:18:41;21.90;;;12.27;;
12962;SDS011;6546;49.882;8.666;2022-12-16T02:21:16;21.50;;;11.47;;
12962;SDS011;6546;49.882;8.666;2022-12-16T02:24:08;23.77;;;13.30;;
12962;SDS011;6546;49.882;8.666;2022-12-16T02:26:58;22.67;;;11.87;;
12962;SDS011;6546;49.882;8.666;2022-12-16T02:30:05;20.70;;;11.50;;
12962;SDS011;6546;49.882;8.666;2022-12-16T02:32:42;22.43;;;12.20;;
12962;SDS011;6546;49.882;8.666;2022-12-16T02:35:19;21.57;;;11.90;;
12962;SDS011;6546;49.882;8.666;2022-12-16T02:37:57;21.07;;;11.67;;
12962;SDS011;6546;49.882;8.666;2022-12-16T02:40:35;19.60;;;11.50;;
12962;SDS011;6546;49.882;8.666;2022-12-16T02:43:08;21.20;;;11.87;;
12962;SDS011;6546;49.882;8.666;2022-12-16T02:45:40;21.60;;;12.07;;
12962;SDS011;6546;49.882;8.666;2022-12-16T02:48:09;20.70;;;11.97;;
12962;SDS011;6546;49.882;8.666;2022-12-16T02:50:38;22.33;;;12.23;;
12962;SDS011;6546;49.882;8.666;2022-12-16T02:53:07;19.27;;;11.70;;
12962;SDS011;6546;49.882;8.666;2022-12-16T02:55:38;22.37;;;12.23;;
12962;SDS011;6546;49.882;8.666;2022-12-16T02:58:15;21.10;;;11.33;;
12962;SDS011;6546;49.882;8.666;2022-12-16T03:00:48;22.23;;;11.20;;
12962;SDS011;6546;49.882;8.666;2022-12-16T03:03:25;22.73;;;12.27;;
12962;SDS011;6546;49.882;8.666;2022-12-16T03:06:00;21.70;;;12.17;;
12962;SDS011;6546;49.882;8.666;2022-12-16T03:08:29;19.03;;;11.27;;
12962;SDS011;6546;49.882;8.666;2022-12-16T03:11:00;21.27;;;11.37;;
12962;SDS011;6546;49.882;8.666;2022-12-16T03:13:29;18.03;;;10.57;;
12962;SDS011;6546;49.882;8.666;2022-12-16T03:16:00;19.23;;;10.80;;
12962;SDS011;6546;49.882;8.666;2022-12-16T03:18:31;17.80;;;11.50;;
12962;SDS011;6546;49.882;8.666;2022-12-16T03:20:59;18.23;;;11.00;;
12962;SDS011;6546;49.882;8.666;2022-12-16T03:23:30;16.97;;;10.40;;
12962;SDS011;6546;49.882;8.666;2022-12-16T03:26:01;19.50;;;10.97;;
12962;SDS011;6546;49.882;8.666;2022-12-16T03:28:35;19.60;;;11.70;;
12962;SDS011;6546;49.882;8.666;2022-12-16T03:31:09;18.67;;;11.43;;
12962;SDS011;6546;49.882;8.666;2022-12-16T03:33:46;18.63;;;11.03;;
12962;SDS011;6546;49.882;8.666;2022-12-16T03:36:19;20.37;;;11.87;;
12962;SDS011;6546;49.882;8.666;2022-12-16T03:38:48;17.93;;;10.70;;
12962;SDS011;6546;49.882;8.666;2022-12-16T03:41:15;17.80;;;11.30;;
12962;SDS011;6546;49.882;8.666;2022-12-16T03:43:44;20.70;;;11.50;;
12962;SDS011;6546;49.882;8.666;2022-12-16T03:46:12;19.13;;;10.67;;
12962;SDS011;6546;49.882;8.666;2022-12-16T03:48:45;20.87;;;12.53;;
12962;SDS011;6546;49.882;8.666;2022-12-16T03:51:13;21.17;;;11.77;;
12962;SDS011;6546;49.882;8.666;2022-12-16T03:53:40;16.53;;;10.77;;
12962;SDS011;6546;49.882;8.666;2022-12-16T03:56:07;20.03;;;10.60;;
12962;SDS011;6546;49.882;8.666;2022-12-16T03:58:34;18.07;;;10.77;;
12962;SDS011;6546;49.882;8.666;2022-12-16T04:01:02;19.30;;;11.30;;
12962;SDS011;6546;49.882;8.666;2022-12-16T04:03:28;17.97;;;10.60;;
12962;SDS011;6546;49.882;8.666;2022-12-16T04:05:56;19.93;;;11.20;;
12962;SDS011;6546;49.882;8.666;2022-12-16T04:08:23;19.77;;;10.30;;
12962;SDS011;6546;49.882;8.666;2022-12-16T04:10:49;17.70;;;11.10;;
12962;SDS011;6546;49.882;8.666;2022-12-16T04:13:34;17.50;;;10.67;;
12962;SDS011;6546;49.882;8.666;2022-12-16T04:16:18;17.07;;;9.67;;
12962;SDS011;6546;49.882;8.666;2022-12-16T04:19:02;16.87;;;10.03;;
12962;SDS011;6546;49.882;8.666;2022-12-16T04:21:48;17.70;;;9.97;;
12962;SDS011;6546;49.882;8.666;2022-12-16T04:24:32;17.00;;;9.63;;
12962;SDS011;6546;49.882;8.666;2022-12-16T04:27:00;19.30;;;10.03;;
12962;SDS011;6546;49.882;8.666;2022-12-16T04:29:44;17.57;;;10.77;;
12962;SDS011;6546;49.882;8.666;2022-12-16T04:32:29;16.10;;;9.00;;
12962;SDS011;6546;49.882;8.666;2022-12-16T04:35:17;16.13;;;9.67;;
12962;SDS011;6546;49.882;8.666;2022-12-16T04:38:03;16.90;;;9.30;;
12962;SDS011;6546;49.882;8.666;2022-12-16T04:40:47;16.00;;;9.63;;
12962;SDS011;6546;49.882;8.666;2022-12-16T04:43:32;18.20;;;10.20;;
12962;SDS011;6546;49.882;8.666;2022-12-16T04:46:16;16.20;;;9.80;;
12962;SDS011;6546;49.882;8.666;2022-12-16T04:49:00;21.47;;;10.73;;
12962;SDS011;6546;49.882;8.666;2022-12-16T04:51:44;17.43;;;10.37;;
12962;SDS011;6546;49.882;8.666;2022-12-16T04:54:30;20.00;;;10.87;;
12962;SDS011;6546;49.882;8.666;2022-12-16T04:57:14;16.30;;;10.13;;
12962;SDS011;6546;49.882;8.666;2022-12-16T04:59:58;20.07;;;10.53;;
12962;SDS011;6546;49.882;8.666;2022-12-16T05:02:42;21.00;;;10.50;;
12962;SDS011;6546;49.882;8.666;2022-12-16T05:05:27;19.03;;;10.33;;
12962;SDS011;6546;49.882;8.666;2022-12-16T05:08:11;17.53;;;9.73;;
12962;SDS011;6546;49.882;8.666;2022-12-16T05:10:56;17.03;;;10.63;;
12962;SDS011;6546;49.882;8.666;2022-12-16T05:13:40;17.53;;;10.77;;
12962;SDS011;6546;49.882;8.666;2022-12-16T05:16:25;16.13;;;10.83;;
12962;SDS011;6546;49.882;8.666;2022-12-16T05:19:09;15.83;;;10.13;;
12962;SDS011;6546;49.882;8.666;2022-12-16T05:21:53;16.63;;;10.20;;
12962;SDS011;6546;49.882;8.666;2022-12-16T05:24:37;15.43;;;9.47;;
12962;SDS011;6546;49.882;8.666;2022-12-16T05:27:23;18.17;;;10.17;;
12962;SDS011;6546;49.882;8.666;2022-12-16T05:30:07;18.73;;;10.43;;
12962;SDS011;6546;49.882;8.666;2022-12-16T05:32:52;16.77;;;10.63;;
12962;SDS011;6546;49.882;8.666;2022-12-16T05:35:36;18.93;;;10.80;;
12962;SDS011;6546;49.882;8.666;2022-12-16T05:38:20;19.37;;;10.40;;
12962;SDS011;6546;49.882;8.666;2022-12-16T05:41:05;15.93;;;9.93;;
12962;SDS011;6546;49.882;8.666;2022-12-16T05:43:47;17.60;;;9.77;;
12962;SDS011;6546;49.882;8.666;2022-12-16T05:46:31;16.13;;;9.33;;
12962;SDS011;6546;49.882;8.666;2022-12-16T05:49:15;17.80;;;9.90;;
12962;SDS011;6546;49.882;8.666;2022-12-16T05:51:59;18.03;;;9.87;;
12962;SDS011;6546;49.882;8.666;2022-12-16T05:54:43;18.00;;;9.27;;
12962;SDS011;6546;49.882;8.666;2022-12-16T05:57:27;15.20;;;9.63;;
12962;SDS011;6546;49.882;8.666;2022-12-16T06:00:13;16.30;;;9.97;;
12962;SDS011;6546;49.882;8.666;2022-12-16T06:03:09;16.70;;;9.57;;
12962;SDS011;6546;49.882;8.666;2022-12-16T06:05:53;17.47;;;9.80;;
12962;SDS011;6546;49.882;8.666;2022-12-16T06:08:37;15.47;;;9.83;;
12962;SDS011;6546;49.882;8.666;2022-12-16T06:11:21;16.37;;;9.07;;
12962;SDS011;6546;49.882;8.666;2022-12-16T06:14:05;17.93;;;9.47;;
12962;SDS011;6546;49.882;8.666;2022-12-16T06:16:51;15.10;;;9.90;;
12962;SDS011;6546;49.882;8.666;2022-12-16T06:19:34;18.57;;;9.77;;
12962;SDS011;6546;49.882;8.666;2022-12-16T06:22:19;17.87;;;10.90;;
12962;SDS011;6546;49.882;8.666;2022-12-16T06:25:03;15.30;;;9.80;;
12962;SDS011;6546;49.882;8.666;2022-12-16T06:27:49;15.77;;;9.93;;
12962;SDS011;6546;49.882;8.666;2022-12-16T06:30:34;16.23;;;10.20;;
12962;SDS011;6546;49.882;8.666;2022-12-16T06:33:20;16.07;;;9.60;;
12962;SDS011;6546;49.882;8.666;2022-12-16T06:36:05;15.50;;;9.77;;
12962;SDS011;6546;49.882;8.666;2022-12-16T06:38:49;14.33;;;9.63;;
12962;SDS011;6546;49.882;8.666;2022-12-16T06:41:33;17.50;;;10.10;;
12962;SDS011;6546;49.882;8.666;2022-12-16T06:44:17;19.93;;;10.77;;
12962;SDS011;6546;49.882;8.666;2022-12-16T06:47:01;15.83;;;9.93;;
12962;SDS011;6546;49.882;8.666;2022-12-16T06:49:47;15.13;;;10.00;;
12962;SDS011;6546;49.882;8.666;2022-12-16T06:52:31;18.63;;;10.90;;
12962;SDS011;6546;49.882;8.666;2022-12-16T06:55:15;15.70;;;9.37;;
12962;SDS011;6546;49.882;8.666;2022-12-16T06:57:59;16.20;;;9.50;;
12962;SDS011;6546;49.882;8.666;2022-12-16T07:00:44;15.40;;;9.50;;
12962;SDS011;6546;49.882;8.666;2022-12-16T07:03:28;15.23;;;9.13;;
12962;SDS011;6546;49.882;8.666;2022-12-16T07:06:14;15.77;;;8.80;;
12962;SDS011;6546;49.882;8.666;2022-12-16T07:08:58;16.33;;;9.20;;
12962;SDS011;6546;49.882;8.666;2022-12-16T07:11:43;17.07;;;10.03;;
12962;SDS011;6546;49.882;8.666;2022-12-16T07:14:27;15.53;;;9.50;;
12962;SDS011;6546;49.882;8.666;2022-12-16T07:17:13;17.17;;;9.67;;
12962;SDS011;6546;49.882;8.666;2022-12-16T07:19:59;14.03;;;8.40;;
12962;SDS011;6546;49.882;8.666;2022-12-16T07:22:44;12.93;;;8.57;;
12962;SDS011;6546;49.882;8.666;2022-12-16T07:25:31;16.00;;;8.90;;
12962;SDS011;6546;49.882;8.666;2022-12-16T07:28:15;21.40;;;9.60;;
12962;SDS011;6546;49.882;8.666;2022-12-16T07:31:00;18.30;;;9.07;;
12962;SDS011;6546;49.882;8.666;2022-12-16T07:33:44;14.03;;;8.93;;
12962;SDS011;6546;49.882;8.666;2022-12-16T07:36:28;15.03;;;8.97;;
12962;SDS011;6546;49.882;8.666;2022-12-16T07:39:14;15.10;;;9.60;;
12962;SDS011;6546;49.882;8.666;2022-12-16T07:41:58;17.17;;;9.23;;
12962;SDS011;6546;49.882;8.666;2022-12-16T07:44:42;17.97;;;9.57;;
12962;SDS011;6546;49.882;8.666;2022-12-16T07:47:26;16.63;;;9.97;;
12962;SDS011;6546;49.882;8.666;2022-12-16T07:50:10;15.87;;;9.47;;
12962;SDS011;6546;49.882;8.666;2022-12-16T07:52:54;15.47;;;9.33;;
12962;SDS011;6546;49.882;8.666;2022-12-16T07:55:39;16.77;;;8.87;;
12962;SDS011;6546;49.882;8.666;2022-12-16T07:58:24;17.13;;;8.30;;
12962;SDS011;6546;49.882;8.666;2022-12-16T08:01:08;15.93;;;9.60;;
12962;SDS011;6546;49.882;8.666;2022-12-16T08:03:52;19.13;;;10.13;;
12962;SDS011;6546;49.882;8.666;2022-12-16T08:06:36;16.77;;;8.60;;
12962;SDS011;6546;49.882;8.666;2022-12-16T08:09:19;17.10;;;9.10;;
12962;SDS011;6546;49.882;8.666;2022-12-16T08:12:05;14.33;;;9.43;;
12962;SDS011;6546;49.882;8.666;2022-12-16T08:14:49;16.33;;;9.67;;
12962;SDS011;6546;49.882;8.666;2022-12-16T08:17:33;20.97;;;9.73;;
12962;SDS011;6546;49.882;8.666;2022-12-16T08:20:17;15.47;;;9.20;;
12962;SDS011;6546;49.882;8.666;2022-12-16T08:23:01;19.43;;;10.37;;
12962;SDS011;6546;49.882;8.666;2022-12-16T08:25:45;18.53;;;10.47;;
12962;SDS011;6546;49.882;8.666;2022-12-16T08:28:30;16.23;;;8.90;;
12962;SDS011;6546;49.882;8.666;2022-12-16T08:31:14;16.37;;;10.23;;
12962;SDS011;6546;49.882;8.666;2022-12-16T08:33:59;14.13;;;9.23;;
12962;SDS011;6546;49.882;8.666;2022-12-16T08:36:43;18.33;;;9.83;;
12962;SDS011;6546;49.882;8.666;2022-12-16T08:39:27;25.07;;;13.07;;
12962;SDS011;6546;49.882;8.666;2022-12-16T08:42:11;21.00;;;11.87;;
12962;SDS011;6546;49.882;8.666;2022-12-16T08:44:56;17.07;;;10.67;;
12962;SDS011;6546;49.882;8.666;2022-12-16T08:47:41;16.57;;;11.67;;
12962;SDS011;6546;49.882;8.666;2022-12-16T08:50:25;18.30;;;10.87;;
12962;SDS011;6546;49.882;8.666;2022-12-16T08:53:09;17.90;;;13.98;;
12962;SDS011;6546;49.882;8.666;2022-12-16T08:55:53;17.53;;;11.67;;
12962;SDS011;6546;49.882;8.666;2022-12-16T08:58:37;17.20;;;10.50;;
12962;SDS011;6546;49.882;8.666;2022-12-16T09:01:23;16.83;;;10.60;;
12962;SDS011;6546;49.882;8.666;2022-12-16T09:04:07;18.53;;;10.30;;
12962;SDS011;6546;49.882;8.666;2022-12-16T09:06:51;16.93;;;10.57;;
12962;SDS011;6546;49.882;8.666;2022-12-16T09:09:35;17.10;;;11.07;;
12962;SDS011;6546;49.882;8.666;2022-12-16T09:12:19;19.77;;;10.60;;
12962;SDS011;6546;49.882;8.666;2022-12-16T09:15:04;18.57;;;11.00;;
12962;SDS011;6546;49.882;8.666;2022-12-16T09:17:53;17.17;;;10.57;;
12962;SDS011;6546;49.882;8.666;2022-12-16T09:20:38;16.90;;;9.50;;
12962;SDS011;6546;49.882;8.666;2022-12-16T09:23:36;19.60;;;10.10;;
12962;SDS011;6546;49.882;8.666;2022-12-16T09:26:21;14.27;;;8.73;;
12962;SDS011;6546;49.882;8.666;2022-12-16T09:29:05;15.83;;;9.43;;
12962;SDS011;6546;49.882;8.666;2022-12-16T09:31:49;17.27;;;9.97;;
12962;SDS011;6546;49.882;8.666;2022-12-16T09:34:35;16.50;;;9.13;;
12962;SDS011;6546;49.882;8.666;2022-12-16T09:37:19;15.40;;;9.90;;
12962;SDS011;6546;49.882;8.666;2022-12-16T09:40:03;18.07;;;9.57;;
12962;SDS011;6546;49.882;8.666;2022-12-16T09:42:49;18.07;;;9.93;;
12962;SDS011;6546;49.882;8.666;2022-12-16T09:45:38;19.03;;;9.13;;
12962;SDS011;6546;49.882;8.666;2022-12-16T09:48:32;16.10;;;9.70;;
12962;SDS011;6546;49.882;8.666;2022-12-16T09:51:25;15.20;;;9.37;;
12962;SDS011;6546;49.882;8.666;2022-12-16T09:54:12;17.10;;;9.80;;
12962;SDS011;6546;49.882;8.666;2022-12-16T09:57:00;14.90;;;9.57;;
12962;SDS011;6546;49.882;8.666;2022-12-16T09:59:48;13.50;;;9.13;;
12962;SDS011;6546;49.882;8.666;2022-12-16T10:02:37;15.37;;;9.60;;
12962;SDS011;6546;49.882;8.666;2022-12-16T10:05:25;13.73;;;10.20;;
12962;SDS011;6546;49.882;8.666;2022-12-16T10:08:20;17.53;;;10.20;;
12962;SDS011;6546;49.882;8.666;2022-12-16T10:11:13;15.20;;;9.57;;
12962;SDS011;6546;49.882;8.666;2022-12-16T10:14:05;15.40;;;10.30;;
12962;SDS011;6546;49.882;8.666;2022-12-16T10:16:54;16.33;;;10.10;;
12962;SDS011;6546;49.882;8.666;2022-12-16T10:19:46;15.33;;;9.70;;
12962;SDS011;6546;49.882;8.666;2022-12-16T10:22:52;15.73;;;10.43;;
12962;SDS011;6546;49.882;8.666;2022-12-16T10:25:44;12.93;;;9.53;;
12962;SDS011;6546;49.882;8.666;2022-12-16T10:28:38;14.07;;;10.10;;
12962;SDS011;6546;49.882;8.666;2022-12-16T10:31:28;15.40;;;9.73;;
12962;SDS011;6546;49.882;8.666;2022-12-16T10:34:13;14.70;;;10.17;;
12962;SDS011;6546;49.882;8.666;2022-12-16T10:37:00;13.63;;;9.80;;
12962;SDS011;6546;49.882;8.666;2022-12-16T10:39:46;13.67;;;9.40;;
12962;SDS011;6546;49.882;8.666;2022-12-16T10:42:35;12.87;;;9.10;;
12962;SDS011;6546;49.882;8.666;2022-12-16T10:45:24;13.43;;;8.80;;
12962;SDS011;6546;49.882;8.666;2022-12-16T10:48:13;18.63;;;9.53;;
12962;SDS011;6546;49.882;8.666;2022-12-16T10:51:00;13.87;;;9.47;;
12962;SDS011;6546;49.882;8.666;2022-12-16T10:54:00;13.10;;;8.53;;
12962;SDS011;6546;49.882;8.666;2022-12-16T10:57:01;14.40;;;8.87;;
12962;SDS011;6546;49.882;8.666;2022-12-16T10:59:53;14.83;;;8.67;;
12962;SDS011;6546;49.882;8.666;2022-12-16T11:02:52;14.43;;;8.27;;
12962;SDS011;6546;49.882;8.666;2022-12-16T11:05:41;13.90;;;8.23;;
12962;SDS011;6546;49.882;8.666;2022-12-16T11:08:26;13.73;;;8.37;;
12962;SDS011;6546;49.882;8.666;2022-12-16T11:11:12;16.27;;;8.80;;
12962;SDS011;6546;49.882;8.666;2022-12-16T11:14:16;13.70;;;8.40;;
12962;SDS011;6546;49.882;8.666;2022-12-16T11:17:12;12.03;;;8.20;;
12962;SDS011;6546;49.882;8.666;2022-12-16T11:20:10;11.23;;;8.03;;
12962;SDS011;6546;49.882;8.666;2022-12-16T11:23:12;14.80;;;8.80;;
12962;SDS011;6546;49.882;8.666;2022-12-16T11:26:03;12.43;;;8.43;;
12962;SDS011;6546;49.882;8.666;2022-12-16T11:29:02;10.97;;;7.40;;
12962;SDS011;6546;49.882;8.666;2022-12-16T11:31:58;9.87;;;7.57;;
12962;SDS011;6546;49.882;8.666;2022-12-16T11:34:49;12.37;;;7.50;;
12962;SDS011;6546;49.882;8.666;2022-12-16T11:37:37;10.63;;;8.03;;
12962;SDS011;6546;49.882;8.666;2022-12-16T11:40:23;12.63;;;7.50;;
12962;SDS011;6546;49.882;8.666;2022-12-16T11:43:08;12.00;;;8.00;;
12962;SDS011;6546;49.882;8.666;2022-12-16T11:45:55;13.53;;;7.77;;
12962;SDS011;6546;49.882;8.666;2022-12-16T11:48:42;12.83;;;7.73;;
12962;SDS011;6546;49.882;8.666;2022-12-16T11:51:32;12.27;;;8.27;;
12962;SDS011;6546;49.882;8.666;2022-12-16T11:54:21;9.97;;;7.37;;
12962;SDS011;6546;49.882;8.666;2022-12-16T11:57:14;12.23;;;8.17;;
12962;SDS011;6546;49.882;8.666;2022-12-16T12:00:02;9.17;;;6.73;;
12962;SDS011;6546;49.882;8.666;2022-12-16T12:02:49;12.63;;;7.30;;
12962;SDS011;6546;49.882;8.666;2022-12-16T12:05:42;12.33;;;7.87;;
12962;SDS011;6546;49.882;8.666;2022-12-16T12:08:36;11.70;;;7.87;;
12962;SDS011;6546;49.882;8.666;2022-12-16T12:11:26;11.73;;;7.47;;
12962;SDS011;6546;49.882;8.666;2022-12-16T12:14:16;9.23;;;6.90;;
12962;SDS011;6546;49.882;8.666;2022-12-16T12:17:16;9.37;;;7.07;;
12962;SDS011;6546;49.882;8.666;2022-12-16T12:23:20;9.37;;;6.87;;
12962;SDS011;6546;49.882;8.666;2022-12-16T12:26:19;10.93;;;7.07;;
12962;SDS011;6546;49.882;8.666;2022-12-16T12:29:12;10.87;;;7.13;;
12962;SDS011;6546;49.882;8.666;2022-12-16T12:32:05;12.03;;;7.37;;
12962;SDS011;6546;49.882;8.666;2022-12-16T12:35:03;11.27;;;7.73;;
12962;SDS011;6546;49.882;8.666;2022-12-16T12:38:01;9.33;;;7.10;;
12962;SDS011;6546;49.882;8.666;2022-12-16T12:40:53;12.17;;;7.70;;
12962;SDS011;6546;49.882;8.666;2022-12-16T12:43:47;11.83;;;7.30;;
12962;SDS011;6546;49.882;8.666;2022-12-16T12:46:38;11.53;;;7.50;;
12962;SDS011;6546;49.882;8.666;2022-12-16T12:49:28;12.10;;;7.43;;
12962;SDS011;6546;49.882;8.666;2022-12-16T12:52:21;11.20;;;6.50;;
12962;SDS011;6546;49.882;8.666;2022-12-16T12:55:19;10.97;;;7.33;;
12962;SDS011;6546;49.882;8.666;2022-12-16T12:58:11;9.70;;;7.10;;
12962;SDS011;6546;49.882;8.666;2022-12-16T13:01:08;12.23;;;7.27;;
12962;SDS011;6546;49.882;8.666;2022-12-16T13:03:55;10.80;;;6.97;;
12962;SDS011;6546;49.882;8.666;2022-12-16T13:06:43;10.10;;;7.13;;
12962;SDS011;6546;49.882;8.666;2022-12-16T13:09:43;10.77;;;7.53;;
12962;SDS011;6546;49.882;8.666;2022-12-16T13:12:28;9.17;;;6.57;;
12962;SDS011;6546;49.882;8.666;2022-12-16T13:24:33;9.87;;;6.77;;
12962;SDS011;6546;49.882;8.666;2022-12-16T13:27:21;8.57;;;6.53;;
12962;SDS011;6546;49.882;8.666;2022-12-16T13:30:16;11.70;;;7.10;;
12962;SDS011;6546;49.882;8.666;2022-12-16T13:33:04;10.20;;;7.10;;
12962;SDS011;6546;49.882;8.666;2022-12-16T13:35:52;10.87;;;7.50;;
12962;SDS011;6546;49.882;8.666;2022-12-16T13:38:43;8.73;;;6.87;;
12962;SDS011;6546;49.882;8.666;2022-12-16T13:41:46;9.73;;;6.87;;
12962;SDS011;6546;49.882;8.666;2022-12-16T13:47:59;11.30;;;7.90;;
12962;SDS011;6546;49.882;8.666;2022-12-16T13:50:48;12.47;;;8.20;;
12962;SDS011;6546;49.882;8.666;2022-12-16T13:53:37;11.03;;;7.10;;
12962;SDS011;6546;49.882;8.666;2022-12-16T13:56:27;10.17;;;7.17;;
12962;SDS011;6546;49.882;8.666;2022-12-16T13:59:17;12.07;;;8.13;;
12962;SDS011;6546;49.882;8.666;2022-12-16T14:02:13;14.30;;;8.77;;
12962;SDS011;6546;49.882;8.666;2022-12-16T14:05:07;11.67;;;8.30;;
12962;SDS011;6546;49.882;8.666;2022-12-16T14:07:59;15.60;;;8.87;;
12962;SDS011;6546;49.882;8.666;2022-12-16T14:10:44;14.07;;;8.80;;
12962;SDS011;6546;49.882;8.666;2022-12-16T14:13:41;11.40;;;8.10;;
12962;SDS011;6546;49.882;8.666;2022-12-16T14:16:32;11.13;;;8.03;;
12962;SDS011;6546;49.882;8.666;2022-12-16T14:19:26;11.47;;;9.03;;
12962;SDS011;6546;49.882;8.666;2022-12-16T14:22:21;12.67;;;8.73;;
12962;SDS011;6546;49.882;8.666;2022-12-16T14:25:13;12.67;;;8.13;;
12962;SDS011;6546;49.882;8.666;2022-12-16T14:28:00;12.90;;;8.67;;
12962;SDS011;6546;49.882;8.666;2022-12-16T14:31:00;11.93;;;8.27;;
12962;SDS011;6546;49.882;8.666;2022-12-16T14:33:50;14.60;;;8.90;;
12962;SDS011;6546;49.882;8.666;2022-12-16T14:36:36;13.03;;;8.93;;
12962;SDS011;6546;49.882;8.666;2022-12-16T14:39:22;14.93;;;9.37;;
12962;SDS011;6546;49.882;8.666;2022-12-16T14:42:14;11.63;;;8.27;;
12962;SDS011;6546;49.882;8.666;2022-12-16T14:45:03;13.20;;;7.93;;
12962;SDS011;6546;49.882;8.666;2022-12-16T14:47:47;11.50;;;7.93;;
12962;SDS011;6546;49.882;8.666;2022-12-16T14:50:32;13.60;;;8.87;;
12962;SDS011;6546;49.882;8.666;2022-12-16T14:53:17;11.50;;;8.20;;
12962;SDS011;6546;49.882;8.666;2022-12-16T14:56:16;14.20;;;9.20;;
12962;SDS011;6546;49.882;8.666;2022-12-16T14:59:06;15.63;;;9.97;;
12962;SDS011;6546;49.882;8.666;2022-12-16T15:01:52;15.27;;;9.50;;
12962;SDS011;6546;49.882;8.666;2022-12-16T15:04:39;14.87;;;8.87;;
12962;SDS011;6546;49.882;8.666;2022-12-16T15:07:23;13.13;;;10.13;;
12962;SDS011;6546;49.882;8.666;2022-12-16T15:10:12;17.83;;;9.93;;
12962;SDS011;6546;49.882;8.666;2022-12-16T15:12:56;18.47;;;11.10;;
12962;SDS011;6546;49.882;8.666;2022-12-16T15:15:41;16.43;;;10.37;;
12962;SDS011;6546;49.882;8.666;2022-12-16T15:18:29;20.20;;;10.87;;
12962;SDS011;6546;49.882;8.666;2022-12-16T15:21:16;16.27;;;10.90;;
12962;SDS011;6546;49.882;8.666;2022-12-16T15:24:01;22.93;;;13.87;;
12962;SDS011;6546;49.882;8.666;2022-12-16T15:27:11;20.20;;;11.40;;
12962;SDS011;6546;49.882;8.666;2022-12-16T15:29:56;19.20;;;11.80;;
12962;SDS011;6546;49.882;8.666;2022-12-16T15:32:40;16.33;;;10.77;;
12962;SDS011;6546;49.882;8.666;2022-12-16T15:35:30;20.57;;;13.03;;
12962;SDS011;6546;49.882;8.666;2022-12-16T15:38:17;20.37;;;12.47;;
12962;SDS011;6546;49.882;8.666;2022-12-16T15:41:13;18.47;;;11.67;;
12962;SDS011;6546;49.882;8.666;2022-12-16T15:44:03;17.60;;;10.80;;
12962;SDS011;6546;49.882;8.666;2022-12-16T15:46:48;14.07;;;10.67;;
12962;SDS011;6546;49.882;8.666;2022-12-16T15:49:33;15.97;;;9.63;;
12962;SDS011;6546;49.882;8.666;2022-12-16T15:52:22;16.83;;;11.27;;
12962;SDS011;6546;49.882;8.666;2022-12-16T15:55:23;15.67;;;9.90;;
12962;SDS011;6546;49.882;8.666;2022-12-16T15:58:11;13.53;;;9.33;;
12962;SDS011;6546;49.882;8.666;2022-12-16T16:00:57;14.30;;;10.27;;
12962;SDS011;6546;49.882;8.666;2022-12-16T16:03:46;18.00;;;10.27;;
12962;SDS011;6546;49.882;8.666;2022-12-16T16:06:32;13.90;;;10.43;;
12962;SDS011;6546;49.882;8.666;2022-12-16T16:09:20;18.00;;;10.97;;
12962;SDS011;6546;49.882;8.666;2022-12-16T16:12:06;15.00;;;10.13;;
12962;SDS011;6546;49.882;8.666;2022-12-16T16:14:51;16.70;;;11.20;;
12962;SDS011;6546;49.882;8.666;2022-12-16T16:17:35;16.97;;;10.97;;
12962;SDS011;6546;49.882;8.666;2022-12-16T16:20:20;17.30;;;11.07;;
12962;SDS011;6546;49.882;8.666;2022-12-16T16:23:04;15.03;;;10.40;;
12962;SDS011;6546;49.882;8.666;2022-12-16T16:25:50;15.73;;;10.87;;
12962;SDS011;6546;49.882;8.666;2022-12-16T16:28:35;13.77;;;10.07;;